Torbali, Turkey
Current Conditions -  °F | °C
As of 9:50 PM on Tuesday 21 Oct 2014 (Local Time) from LTBJ Reporting Station
Clear Clear  
Wind Chill: 55°   Ceiling: Unl
Heat Index: 55°   Visibility: 6mi
Dew Point: 37°   Wind: 3mph
Humidity: 51%   Direction: 150°SSE
Pressure: 29.94"   Gusts: NA
Location:  38.17°N, 27.36°E
Report Text: LTBJ 211850Z 15003KT 120V180 CAVOK 13/03 Q1014 NOSIG
Loading
Personal Weather Stations






























Interactive Weather Map
Tropical Storm Tracking
New forecast layout! Learn more

10-Day Weather Forecast

Advertisements
Track Severe Weather on mobile